createdAt,value
2023-03-29T00:01:34.892Z,12.47
2023-03-29T00:04:02.455Z,16.80
2023-03-29T00:06:33.284Z,11.33
2023-03-29T00:08:57.122Z,13.63
2023-03-29T00:11:22.919Z,10.80
2023-03-29T00:13:46.535Z,16.40
2023-03-29T00:16:12.964Z,17.27
2023-03-29T00:18:36.786Z,12.63
2023-03-29T00:21:02.103Z,13.83
2023-03-29T00:23:26.230Z,11.73
2023-03-29T00:25:49.915Z,12.70
2023-03-29T00:28:15.048Z,15.10
2023-03-29T00:30:38.661Z,14.07
2023-03-29T00:33:02.690Z,13.07
2023-03-29T00:35:27.189Z,12.60
2023-03-29T00:37:53.059Z,14.17
2023-03-29T00:40:17.047Z,14.73
2023-03-29T00:42:41.137Z,15.50
2023-03-29T00:45:11.464Z,13.23
2023-03-29T00:47:41.700Z,17.03
2023-03-29T00:50:14.367Z,18.67
2023-03-29T00:52:40.446Z,14.50
2023-03-29T00:55:21.788Z,12.70
2023-03-29T00:57:47.066Z,15.13
2023-03-29T01:00:15.496Z,10.33
2023-03-29T01:02:41.168Z,16.13
2023-03-29T01:05:09.915Z,15.43
2023-03-29T01:07:42.716Z,13.37
2023-03-29T01:10:12.127Z,14.90
2023-03-29T01:12:42.287Z,13.93
2023-03-29T01:15:12.399Z,18.53
2023-03-29T01:17:37.341Z,15.07
2023-03-29T01:20:13.575Z,15.60
2023-03-29T01:22:51.428Z,19.40
2023-03-29T01:25:26.274Z,18.73
2023-03-29T01:27:56.186Z,16.40
2023-03-29T01:30:28.448Z,17.53
2023-03-29T01:32:57.178Z,16.07
2023-03-29T01:35:26.698Z,18.30
2023-03-29T01:37:58.474Z,13.37
2023-03-29T01:40:22.177Z,15.00
2023-03-29T01:42:56.469Z,12.93
2023-03-29T01:45:26.418Z,15.27
2023-03-29T01:48:19.733Z,15.10
2023-03-29T01:50:47.606Z,13.90
2023-03-29T01:53:17.632Z,18.10
2023-03-29T01:55:46.038Z,16.50
2023-03-29T01:58:13.741Z,12.20
2023-03-29T02:00:39.889Z,14.97
2023-03-29T02:03:09.628Z,17.97
2023-03-29T02:05:35.039Z,14.33
2023-03-29T02:08:00.158Z,16.43
2023-03-29T02:10:25.904Z,13.30
2023-03-29T02:12:49.693Z,12.00
2023-03-29T02:15:18.487Z,13.40
2023-03-29T02:17:44.212Z,13.80
2023-03-29T02:20:14.709Z,13.27
2023-03-29T02:22:44.109Z,14.87
2023-03-29T02:25:10.043Z,13.00
2023-03-29T02:27:37.807Z,14.27
2023-03-29T02:30:01.922Z,16.03
2023-03-29T02:32:35.616Z,13.20
2023-03-29T02:35:04.622Z,13.30
2023-03-29T02:37:31.366Z,13.87
2023-03-29T02:39:55.442Z,12.30
2023-03-29T02:42:20.845Z,19.70
2023-03-29T02:44:48.754Z,17.27
2023-03-29T02:47:19.663Z,16.63
2023-03-29T02:49:45.160Z,12.33
2023-03-29T02:52:14.844Z,15.40
2023-03-29T02:54:43.095Z,11.77
2023-03-29T02:57:07.547Z,15.93
2023-03-29T02:59:32.006Z,15.53
2023-03-29T03:01:55.783Z,16.17
2023-03-29T03:04:21.600Z,14.03
2023-03-29T03:06:46.955Z,21.53
2023-03-29T03:09:10.853Z,16.80
2023-03-29T03:11:37.563Z,13.83
2023-03-29T03:14:01.281Z,10.23
2023-03-29T03:16:26.205Z,13.03
2023-03-29T03:18:51.278Z,18.67
2023-03-29T03:21:14.912Z,23.23
2023-03-29T03:23:40.474Z,11.73
2023-03-29T03:26:05.066Z,14.60
2023-03-29T03:28:30.089Z,13.17
2023-03-29T03:30:54.239Z,15.03
2023-03-29T03:33:36.732Z,12.30
2023-03-29T03:36:31.462Z,12.80
2023-03-29T03:38:57.134Z,15.43
2023-03-29T03:41:20.919Z,9.83
2023-03-29T03:43:48.720Z,14.50
2023-03-29T03:46:13.019Z,15.97
2023-03-29T03:48:37.323Z,12.70
2023-03-29T03:51:16.075Z,10.77
2023-03-29T03:53:40.749Z,10.70
2023-03-29T03:56:13.954Z,13.20
2023-03-29T03:59:01.180Z,12.07
2023-03-29T04:01:28.385Z,11.20
2023-03-29T04:04:01.653Z,10.87
2023-03-29T04:06:25.590Z,11.27
2023-03-29T04:09:09.303Z,12.27
2023-03-29T04:11:38.226Z,10.50
2023-03-29T04:14:03.191Z,10.27
2023-03-29T04:16:48.320Z,14.03
2023-03-29T04:19:31.105Z,11.73
2023-03-29T04:21:54.865Z,14.20
2023-03-29T04:24:18.763Z,15.63
2023-03-29T04:27:00.614Z,11.20
2023-03-29T04:29:24.531Z,18.80
2023-03-29T04:31:56.499Z,13.37
2023-03-29T04:34:45.855Z,10.43
2023-03-29T04:37:10.606Z,13.03
2023-03-29T04:39:34.736Z,12.80
2023-03-29T04:42:03.058Z,11.77
2023-03-29T04:44:28.156Z,16.40
2023-03-29T04:46:54.477Z,11.07
2023-03-29T04:49:44.152Z,13.43
2023-03-29T04:52:15.737Z,11.13
2023-03-29T04:54:40.533Z,16.30
2023-03-29T04:57:35.400Z,13.73
2023-03-29T05:00:15.128Z,11.07
2023-03-29T05:03:02.008Z,14.13
2023-03-29T05:05:28.694Z,13.10
2023-03-29T05:07:54.948Z,11.97
2023-03-29T05:10:24.476Z,10.40
2023-03-29T05:12:53.966Z,14.13
2023-03-29T05:15:19.395Z,11.10
2023-03-29T05:17:44.136Z,18.43
2023-03-29T05:20:11.298Z,16.17
2023-03-29T05:22:36.360Z,13.23
2023-03-29T05:25:00.768Z,13.37
2023-03-29T05:27:24.792Z,11.23
2023-03-29T05:30:04.749Z,11.03
2023-03-29T05:32:51.301Z,11.10
2023-03-29T05:35:20.144Z,15.73
2023-03-29T05:37:43.887Z,11.77
2023-03-29T05:40:12.939Z,17.07
2023-03-29T05:43:12.216Z,11.37
2023-03-29T05:45:37.501Z,13.97
2023-03-29T05:48:01.480Z,19.53
2023-03-29T05:50:26.121Z,12.13
2023-03-29T05:52:53.106Z,14.97
2023-03-29T05:55:16.934Z,12.20
2023-03-29T05:57:40.763Z,13.60
2023-03-29T06:00:20.094Z,14.07
2023-03-29T06:02:45.708Z,12.47
2023-03-29T06:05:10.125Z,9.83
2023-03-29T06:07:39.903Z,11.07
2023-03-29T06:10:21.955Z,16.77
2023-03-29T06:12:51.625Z,12.33
2023-03-29T06:15:18.882Z,20.77
2023-03-29T06:18:04.694Z,45.10
2023-03-29T06:20:29.955Z,17.30
2023-03-29T06:23:00.131Z,13.27
2023-03-29T06:25:23.856Z,13.10
2023-03-29T06:27:47.893Z,19.30
2023-03-29T06:30:15.470Z,10.33
2023-03-29T06:32:43.449Z,15.27
2023-03-29T06:35:25.278Z,11.97
2023-03-29T06:37:56.488Z,12.50
2023-03-29T06:40:48.332Z,14.47
2023-03-29T06:43:13.090Z,26.77
2023-03-29T06:45:49.457Z,15.13
2023-03-29T06:48:23.588Z,11.10
2023-03-29T06:50:49.448Z,12.00
2023-03-29T06:53:15.661Z,12.57
2023-03-29T06:55:41.389Z,12.67
2023-03-29T06:58:28.821Z,10.63
2023-03-29T07:01:02.664Z,9.27
2023-03-29T07:03:49.696Z,11.87
2023-03-29T07:06:20.565Z,11.63
2023-03-29T07:08:47.417Z,17.27
2023-03-29T07:11:22.502Z,16.57
2023-03-29T07:13:52.213Z,15.33
2023-03-29T07:16:18.132Z,11.80
2023-03-29T07:18:49.113Z,14.57
2023-03-29T07:21:28.815Z,11.80
2023-03-29T07:23:54.137Z,13.00
2023-03-29T07:26:28.553Z,10.53
2023-03-29T07:28:54.976Z,11.63
2023-03-29T07:31:18.697Z,10.43
2023-03-29T07:33:49.644Z,10.60
2023-03-29T07:36:13.760Z,11.47
2023-03-29T07:38:39.912Z,13.93
2023-03-29T07:41:11.385Z,15.30
2023-03-29T07:43:42.936Z,11.57
2023-03-29T07:48:37.235Z,11.90
2023-03-29T07:51:11.930Z,17.13
2023-03-29T07:53:47.499Z,15.52
2023-03-29T07:56:30.264Z,10.63
2023-03-29T07:59:14.124Z,9.02
2023-03-29T08:01:41.118Z,16.90
2023-03-29T08:04:21.612Z,11.55
2023-03-29T08:07:03.974Z,7.57
2023-03-29T08:09:47.727Z,9.00
2023-03-29T08:12:11.656Z,9.43
2023-03-29T08:14:36.190Z,10.75
2023-03-29T08:17:13.923Z,8.57
2023-03-29T08:19:51.410Z,10.68
2023-03-29T08:22:20.589Z,12.13
2023-03-29T08:25:17.031Z,10.55
2023-03-29T08:27:45.426Z,10.70
2023-03-29T08:30:14.873Z,6.82
2023-03-29T08:32:39.237Z,10.00
2023-03-29T08:35:04.847Z,6.18
2023-03-29T08:37:34.825Z,7.40
2023-03-29T08:39:58.844Z,8.90
2023-03-29T08:43:01.847Z,6.55
2023-03-29T08:45:39.514Z,12.35
2023-03-29T08:48:17.866Z,12.20
2023-03-29T08:50:48.021Z,7.93
2023-03-29T08:53:18.835Z,9.25
2023-03-29T08:56:11.775Z,7.05
2023-03-29T08:58:58.423Z,10.80
2023-03-29T09:01:31.120Z,8.23
2023-03-29T09:04:06.113Z,6.93
2023-03-29T09:06:47.558Z,8.73
2023-03-29T09:09:20.319Z,8.18
2023-03-29T09:12:04.257Z,8.43
2023-03-29T09:14:51.352Z,5.78
2023-03-29T09:17:30.691Z,6.63
2023-03-29T09:20:06.483Z,8.18
2023-03-29T09:22:39.930Z,10.48
2023-03-29T09:25:13.370Z,8.02
2023-03-29T09:27:50.538Z,7.38
2023-03-29T09:30:36.441Z,7.32
2023-03-29T09:33:07.779Z,7.93
2023-03-29T09:35:56.416Z,8.77
2023-03-29T09:38:23.012Z,9.05
2023-03-29T09:40:51.541Z,5.90
2023-03-29T09:43:30.182Z,12.15
2023-03-29T09:46:00.186Z,7.28
2023-03-29T09:48:26.532Z,7.72
2023-03-29T09:50:53.660Z,8.88
2023-03-29T09:53:19.748Z,8.95
2023-03-29T09:55:53.125Z,13.88
2023-03-29T09:58:32.938Z,7.47
2023-03-29T10:01:03.221Z,6.57
2023-03-29T10:03:29.920Z,8.90
2023-03-29T10:06:05.350Z,8.05
2023-03-29T10:08:31.877Z,5.55
2023-03-29T10:10:59.949Z,6.60
2023-03-29T10:13:30.490Z,5.50
2023-03-29T10:16:03.785Z,6.72
2023-03-29T10:18:32.615Z,5.78
2023-03-29T10:21:03.194Z,5.00
2023-03-29T10:23:34.065Z,8.60
2023-03-29T10:25:57.870Z,5.82
2023-03-29T10:28:22.941Z,4.78
2023-03-29T10:30:54.118Z,6.22
2023-03-29T10:33:24.076Z,3.20
2023-03-29T10:35:50.543Z,6.50
2023-03-29T10:38:18.315Z,6.70
2023-03-29T10:40:45.834Z,5.95
2023-03-29T10:43:16.120Z,3.97
2023-03-29T10:45:41.193Z,4.30
2023-03-29T10:48:07.927Z,7.85
2023-03-29T10:50:38.072Z,6.57
2023-03-29T10:53:03.557Z,7.57
2023-03-29T10:55:35.696Z,7.55
2023-03-29T10:58:09.832Z,4.80
2023-03-29T11:00:39.453Z,5.10
2023-03-29T11:03:30.826Z,7.47
2023-03-29T11:06:04.305Z,7.00
2023-03-29T11:08:50.536Z,7.25
2023-03-29T11:11:41.305Z,6.38
2023-03-29T11:14:15.938Z,5.70
2023-03-29T11:16:46.976Z,6.63
2023-03-29T11:19:44.384Z,7.55
2023-03-29T11:22:15.199Z,5.22
2023-03-29T11:24:53.715Z,5.93
2023-03-29T11:27:31.819Z,5.30
2023-03-29T11:30:12.358Z,6.97
2023-03-29T11:32:47.036Z,7.95
2023-03-29T11:35:38.476Z,6.40
2023-03-29T11:38:15.206Z,6.65
2023-03-29T11:40:53.442Z,6.57
2023-03-29T11:43:25.242Z,6.82
2023-03-29T11:45:56.013Z,4.72
2023-03-29T11:48:25.414Z,8.32
2023-03-29T11:50:56.446Z,5.88
2023-03-29T11:53:29.535Z,4.20
2023-03-29T11:55:56.135Z,5.40
2023-03-29T11:58:25.306Z,4.85
2023-03-29T12:00:55.440Z,7.07
2023-03-29T12:03:34.485Z,6.10
2023-03-29T12:06:05.083Z,7.22
2023-03-29T12:08:33.983Z,4.72
2023-03-29T12:11:05.330Z,5.28
2023-03-29T12:13:33.492Z,4.15
2023-03-29T12:16:04.023Z,4.30
2023-03-29T12:18:34.138Z,3.72
2023-03-29T12:21:03.209Z,9.23
2023-03-29T12:23:32.348Z,6.25
2023-03-29T12:26:06.976Z,3.70
2023-03-29T12:29:15.176Z,12.65
2023-03-29T12:31:45.990Z,11.05
2023-03-29T12:34:36.321Z,7.07
2023-03-29T12:37:33.768Z,8.43
2023-03-29T12:40:20.004Z,8.65
2023-03-29T12:43:07.000Z,4.97
2023-03-29T12:46:09.504Z,5.00
2023-03-29T12:48:34.127Z,6.18
2023-03-29T12:51:02.257Z,5.57
2023-03-29T12:53:28.809Z,5.60
2023-03-29T12:56:09.631Z,7.88
2023-03-29T12:59:09.047Z,6.47
2023-03-29T13:01:35.040Z,5.32
2023-03-29T13:04:18.609Z,4.40
2023-03-29T13:07:04.089Z,6.03
2023-03-29T13:09:30.392Z,7.35
2023-03-29T13:11:57.575Z,6.45
2023-03-29T13:14:24.891Z,6.28
2023-03-29T13:16:49.327Z,7.35
2023-03-29T13:19:28.486Z,5.57
2023-03-29T13:22:05.841Z,6.57
2023-03-29T13:24:53.022Z,5.93
2023-03-29T13:27:31.754Z,8.40
2023-03-29T13:30:25.364Z,15.77
2023-03-29T13:32:57.228Z,5.32
2023-03-29T13:35:33.239Z,5.85
2023-03-29T13:38:09.028Z,3.83
2023-03-29T13:40:44.766Z,5.45
2023-03-29T13:43:23.591Z,3.38
2023-03-29T13:46:04.506Z,3.95
2023-03-29T13:48:30.459Z,7.43
2023-03-29T13:50:57.093Z,7.07
2023-03-29T13:53:29.239Z,4.80
2023-03-29T13:55:55.598Z,6.13
2023-03-29T13:58:34.149Z,9.85
2023-03-29T14:01:04.184Z,4.60
2023-03-29T14:03:30.772Z,4.30
2023-03-29T14:06:00.271Z,4.20
2023-03-29T14:08:29.826Z,6.85
2023-03-29T14:10:55.092Z,8.57
2023-03-29T14:13:24.043Z,11.32
2023-03-29T14:15:51.534Z,11.93
2023-03-29T14:18:19.066Z,6.80
2023-03-29T14:20:46.252Z,6.10
2023-03-29T14:23:14.995Z,4.35
2023-03-29T14:25:41.329Z,5.50
2023-03-29T14:28:22.363Z,9.40
2023-03-29T14:30:49.828Z,7.90
2023-03-29T14:33:15.219Z,6.50
2023-03-29T14:35:40.528Z,8.43
2023-03-29T14:38:04.331Z,9.52
2023-03-29T14:40:28.201Z,5.18
2023-03-29T14:42:52.526Z,6.75
2023-03-29T14:45:19.727Z,5.03
2023-03-29T14:47:45.990Z,8.57
2023-03-29T14:50:20.911Z,5.13
2023-03-29T14:52:46.995Z,5.68
2023-03-29T14:55:12.697Z,7.65
2023-03-29T14:57:38.201Z,7.47
2023-03-29T15:00:13.425Z,6.82
2023-03-29T15:02:38.848Z,9.88
2023-03-29T15:05:04.871Z,7.95
2023-03-29T15:07:29.866Z,8.13
2023-03-29T15:09:53.813Z,6.55
2023-03-29T15:12:17.958Z,7.80
2023-03-29T15:14:42.093Z,7.93
2023-03-29T15:17:42.647Z,8.90
2023-03-29T15:20:21.580Z,9.60
2023-03-29T15:22:57.893Z,9.23
2023-03-29T15:25:22.948Z,7.20
2023-03-29T15:27:50.715Z,15.02
2023-03-29T15:30:18.159Z,9.70
2023-03-29T15:32:41.966Z,11.70
2023-03-29T15:35:09.353Z,9.30
2023-03-29T15:37:34.626Z,8.40
2023-03-29T15:39:59.042Z,8.52
2023-03-29T15:42:22.733Z,8.95
2023-03-29T15:44:46.402Z,18.17
2023-03-29T15:47:12.121Z,9.57
2023-03-29T15:49:36.138Z,11.20
2023-03-29T15:51:59.915Z,11.20
2023-03-29T15:54:25.778Z,10.55
2023-03-29T15:56:54.087Z,10.55
2023-03-29T15:59:19.256Z,11.55
2023-03-29T16:01:43.102Z,14.98
2023-03-29T16:04:10.585Z,16.98
2023-03-29T16:06:36.239Z,11.02
2023-03-29T16:09:00.117Z,10.75
2023-03-29T16:11:25.417Z,12.85
2023-03-29T16:13:49.244Z,9.13
2023-03-29T16:16:13.283Z,10.20
2023-03-29T16:18:36.944Z,10.27
2023-03-29T16:21:00.842Z,11.20
2023-03-29T16:23:24.550Z,10.52
2023-03-29T16:25:48.239Z,10.95
2023-03-29T16:28:13.536Z,11.15
2023-03-29T16:30:39.250Z,8.82
2023-03-29T16:33:06.341Z,8.50
2023-03-29T16:35:32.952Z,9.60
2023-03-29T16:37:56.818Z,9.15
2023-03-29T16:40:21.076Z,10.18
2023-03-29T16:42:45.390Z,8.95
2023-03-29T16:45:14.944Z,9.82
2023-03-29T16:47:39.553Z,13.20
2023-03-29T16:50:03.297Z,9.90
2023-03-29T16:52:27.701Z,11.77
2023-03-29T16:54:53.045Z,34.83
2023-03-29T16:57:16.858Z,25.42
2023-03-29T16:59:42.314Z,12.30
2023-03-29T17:02:07.350Z,10.43
2023-03-29T17:04:31.471Z,27.05
2023-03-29T17:06:55.350Z,37.67
2023-03-29T17:09:19.036Z,21.52
2023-03-29T17:11:42.766Z,14.75
2023-03-29T17:14:06.485Z,15.73
2023-03-29T17:16:30.324Z,11.90
2023-03-29T17:18:55.472Z,11.30
2023-03-29T17:21:19.184Z,14.02
2023-03-29T17:23:42.993Z,14.85
2023-03-29T17:26:07.805Z,13.43
2023-03-29T17:28:31.415Z,11.48
2023-03-29T17:30:55.240Z,11.98
2023-03-29T17:33:22.840Z,13.90
2023-03-29T17:35:48.592Z,10.48
2023-03-29T17:38:12.760Z,12.52
2023-03-29T17:40:36.471Z,11.93
2023-03-29T17:43:00.180Z,9.65
2023-03-29T17:45:24.021Z,11.18
2023-03-29T17:47:47.770Z,13.57
2023-03-29T17:50:13.891Z,11.70
2023-03-29T17:52:39.604Z,9.52
2023-03-29T17:55:03.505Z,10.55
2023-03-29T17:57:27.111Z,11.57
2023-03-29T17:59:50.813Z,10.75
2023-03-29T18:02:19.210Z,13.07
2023-03-29T18:04:42.922Z,16.27
2023-03-29T18:07:06.530Z,10.50
2023-03-29T18:09:31.748Z,10.63
2023-03-29T18:11:55.490Z,12.50
2023-03-29T18:14:21.284Z,11.25
2023-03-29T18:16:45.010Z,12.95
2023-03-29T18:19:10.745Z,9.70
2023-03-29T18:21:34.566Z,12.23
2023-03-29T18:23:58.297Z,9.20
2023-03-29T18:26:24.186Z,11.40
2023-03-29T18:28:48.445Z,10.85
2023-03-29T18:31:12.182Z,11.43
2023-03-29T18:33:36.354Z,13.75
2023-03-29T18:36:00.162Z,13.43
2023-03-29T18:38:24.487Z,11.32
2023-03-29T18:40:48.293Z,11.68
2023-03-29T18:43:13.522Z,10.68
2023-03-29T18:45:37.455Z,10.30
2023-03-29T18:48:02.166Z,10.43
2023-03-29T18:50:25.879Z,13.07
2023-03-29T18:52:49.615Z,12.80
2023-03-29T18:55:13.287Z,11.57
2023-03-29T18:57:37.250Z,14.38
2023-03-29T19:00:02.466Z,11.20
2023-03-29T19:02:26.185Z,10.27
2023-03-29T19:04:50.181Z,11.60
2023-03-29T19:07:13.915Z,15.02
2023-03-29T19:09:37.641Z,14.20
2023-03-29T19:12:01.329Z,13.25
2023-03-29T19:14:25.337Z,11.60
2023-03-29T19:16:50.856Z,13.10
2023-03-29T19:19:14.505Z,11.50
2023-03-29T19:21:38.622Z,14.77
2023-03-29T19:24:05.080Z,16.70
2023-03-29T19:26:29.535Z,13.07
2023-03-29T19:28:53.228Z,13.10
2023-03-29T19:31:16.992Z,15.10
2023-03-29T19:33:42.134Z,16.45
2023-03-29T19:36:06.851Z,14.70
2023-03-29T19:38:30.905Z,13.10
2023-03-29T19:40:54.616Z,14.55
2023-03-29T19:43:18.635Z,16.10
2023-03-29T19:45:42.513Z,19.98
2023-03-29T19:48:07.164Z,16.58
2023-03-29T19:50:32.791Z,15.38
2023-03-29T19:52:58.534Z,13.85
2023-03-29T19:55:22.473Z,15.98
2023-03-29T19:57:46.212Z,14.38
2023-03-29T20:00:11.704Z,14.98
2023-03-29T20:02:38.264Z,11.90
2023-03-29T20:05:02.019Z,11.70
2023-03-29T20:07:27.183Z,12.75
2023-03-29T20:09:50.961Z,16.95
2023-03-29T20:12:14.721Z,15.80
2023-03-29T20:14:40.335Z,11.27
2023-03-29T20:17:04.589Z,14.93
2023-03-29T20:19:30.103Z,13.10
2023-03-29T20:21:57.431Z,13.20
2023-03-29T20:24:23.152Z,16.52
2023-03-29T20:26:46.923Z,12.95
2023-03-29T20:29:10.681Z,15.93
2023-03-29T20:31:34.615Z,14.60
2023-03-29T20:33:58.716Z,14.95
2023-03-29T20:36:23.387Z,13.32
2023-03-29T20:38:47.228Z,15.25
2023-03-29T20:41:13.922Z,12.60
2023-03-29T20:43:38.361Z,14.80
2023-03-29T20:46:02.129Z,14.63
2023-03-29T20:48:31.623Z,18.63
2023-03-29T20:50:55.439Z,11.95
2023-03-29T20:53:20.742Z,14.45
2023-03-29T20:55:44.685Z,12.38
2023-03-29T20:58:10.595Z,15.68
2023-03-29T21:00:37.646Z,15.68
2023-03-29T21:03:03.848Z,16.92
2023-03-29T21:05:28.482Z,18.90
2023-03-29T21:07:54.615Z,22.00
2023-03-29T21:10:18.940Z,23.55
2023-03-29T21:12:43.705Z,16.90
2023-03-29T21:15:10.710Z,17.33
2023-03-29T21:17:34.496Z,21.92
2023-03-29T21:19:58.239Z,19.83
2023-03-29T21:22:23.267Z,20.08
2023-03-29T21:24:46.876Z,18.38
2023-03-29T21:27:10.957Z,19.42
2023-03-29T21:29:35.050Z,16.70
2023-03-29T21:32:00.311Z,17.35
2023-03-29T21:34:24.144Z,13.55
2023-03-29T21:36:48.296Z,17.45
2023-03-29T21:39:12.074Z,15.55
2023-03-29T21:41:36.303Z,18.60
2023-03-29T21:44:00.342Z,16.85
2023-03-29T21:46:24.810Z,19.08
2023-03-29T21:48:50.092Z,15.48
2023-03-29T21:51:13.770Z,19.38
2023-03-29T21:53:37.992Z,14.60
2023-03-29T21:56:02.345Z,16.75
2023-03-29T21:58:26.266Z,17.75
2023-03-29T22:00:50.800Z,15.50
2023-03-29T22:03:15.046Z,13.50
2023-03-29T22:05:40.644Z,14.63
2023-03-29T22:08:05.353Z,14.07
2023-03-29T22:10:29.802Z,14.70
2023-03-29T22:12:53.711Z,11.50
2023-03-29T22:15:18.685Z,16.50
2023-03-29T22:17:42.903Z,13.52
2023-03-29T22:20:12.878Z,15.60
2023-03-29T22:22:38.055Z,9.45
2023-03-29T22:25:01.857Z,10.95
2023-03-29T22:27:25.579Z,14.00
2023-03-29T22:29:49.378Z,12.50
2023-03-29T22:32:13.101Z,11.98
2023-03-29T22:34:36.966Z,14.35
2023-03-29T22:37:00.647Z,12.68
2023-03-29T22:39:25.838Z,12.05
2023-03-29T22:41:49.498Z,12.32
2023-03-29T22:44:13.831Z,12.45
2023-03-29T22:46:37.512Z,10.40
2023-03-29T22:49:01.389Z,12.55
2023-03-29T22:51:25.186Z,14.10
2023-03-29T22:53:49.628Z,10.55
2023-03-29T22:56:15.550Z,12.48
2023-03-29T22:58:39.641Z,14.70
2023-03-29T23:01:03.802Z,12.32
2023-03-29T23:03:27.823Z,12.02
2023-03-29T23:05:52.380Z,10.85
2023-03-29T23:08:16.521Z,13.07
2023-03-29T23:10:40.182Z,11.30
2023-03-29T23:13:09.663Z,9.75
2023-03-29T23:15:33.996Z,11.85
2023-03-29T23:17:58.076Z,11.20
2023-03-29T23:20:21.902Z,12.02
2023-03-29T23:22:45.511Z,10.63
2023-03-29T23:25:10.174Z,11.52
2023-03-29T23:27:34.697Z,12.15
2023-03-29T23:30:01.612Z,13.77
2023-03-29T23:32:25.325Z,12.95
2023-03-29T23:34:49.041Z,12.15
2023-03-29T23:37:12.758Z,14.25
2023-03-29T23:39:36.445Z,13.05
2023-03-29T23:42:00.261Z,11.57
2023-03-29T23:44:24.185Z,11.50
2023-03-29T23:46:49.526Z,13.90
2023-03-29T23:49:14.043Z,11.98
2023-03-29T23:51:39.226Z,13.02
2023-03-29T23:54:03.329Z,13.63
2023-03-29T23:56:27.040Z,12.48
2023-03-29T23:58:50.969Z,15.32
